Time;durP1;ratioP1;P1;durP2;ratioP2;P2;SDS_P1;SDS_P2;PMS_P1;PMS_P2;Temp;Humidity;BMP_temperature;BMP_pressure;BME280_temperature;BME280_humidity;BME280_pressure;Samples;Min_cycle;Max_cycle;Signal;HPM_P1;HPM_P2
2021/05/10 17:48:17;;;;;;;3.08;1.20;;;20.60;54.70;;;;;;5080873;28;20401;-69
2021/05/10 17:50:43;;;;;;;6.70;1.50;;;21.10;53.90;;;;;;5072410;28;20093;-68
2021/05/10 17:53:09;;;;;;;3.53;1.27;;;;;;;;;;5078680;28;20052;-68
2021/05/10 17:55:34;;;;;;;5.65;1.88;;;21.70;52.90;;;;;;5065110;28;20078;-68
2021/05/10 17:58:00;;;;;;;7.75;2.05;;;22.20;52.60;;;;;;5077367;28;20474;-68
2021/05/10 18:00:26;;;;;;;4.95;1.73;;;24.60;51.90;;;;;;5087267;28;20028;-68
2021/05/10 18:05:37;;;;;;;4.65;1.50;;;23.20;50.00;;;;;;5087053;28;20111;-68
2021/05/10 18:08:03;;;;;;;4.55;1.40;;;23.30;49.70;;;;;;5084500;28;20119;-68
2021/05/10 18:10:29;;;;;;;8.60;1.88;;;23.40;49.60;;;;;;5086864;28;20064;-69
2021/05/10 18:12:54;;;;;;;7.57;1.92;;;23.40;49.50;;;;;;5087537;28;20125;-69
2021/05/10 18:15:20;;;;;;;3.75;1.42;;;23.40;49.30;;;;;;5084959;28;20028;-68
2021/05/10 18:17:47;;;;;;;5.00;1.20;;;23.50;48.70;;;;;;5085297;28;20036;-68
2021/05/10 18:20:16;;;;;;;3.30;1.20;;;23.40;49.00;;;;;;5066979;28;20055;-69
2021/05/10 18:22:41;;;;;;;3.03;1.38;;;23.50;48.30;;;;;;5067196;28;20120;-69
2021/05/10 18:25:07;;;;;;;4.18;1.30;;;23.40;48.60;;;;;;5084202;28;20423;-68
2021/05/10 18:27:34;;;;;;;3.90;1.45;;;23.50;48.10;;;;;;5086880;28;20024;-68
2021/05/10 18:29:59;;;;;;;5.55;1.55;;;23.50;47.90;;;;;;5083133;28;20105;-69
2021/05/10 18:32:26;;;;;;;3.70;1.70;;;23.50;47.80;;;;;;5085418;28;20369;-68
2021/05/10 18:34:52;;;;;;;6.68;1.80;;;23.60;47.70;;;;;;5086662;28;20457;-68
2021/05/10 18:39:46;;;;;;;5.60;1.80;;;23.50;47.60;;;;;;5069191;28;20414;-69
2021/05/10 18:42:12;;;;;;;6.78;1.65;;;23.60;47.90;;;;;;5072048;28;20028;-68
2021/05/10 18:44:39;;;;;;;5.57;1.77;;;23.60;48.00;;;;;;5085725;28;20491;-68
2021/05/10 18:47:06;;;;;;;11.13;1.92;;;23.50;47.90;;;;;;5086440;28;20056;-68
2021/05/10 18:49:44;;;;;;;5.50;1.42;;;23.50;48.30;;;;;;5068447;28;20067;-69
2021/05/10 18:52:09;;;;;;;4.47;2.25;;;23.50;48.90;;;;;;5066559;28;20436;-68
2021/05/10 18:54:35;;;;;;;4.57;1.70;;;23.40;48.70;;;;;;5065929;28;20134;-68
2021/05/10 18:57:00;;;;;;;5.25;1.42;;;23.40;48.90;;;;;;5066435;28;20453;-69
2021/05/10 18:59:26;;;;;;;5.53;1.92;;;23.40;48.80;;;;;;5053468;28;20340;-68
2021/05/10 19:01:52;;;;;;;3.42;1.73;;;23.30;48.90;;;;;;5053062;28;20070;-69
2021/05/10 19:04:19;;;;;;;5.65;1.67;;;23.30;49.10;;;;;;5051958;28;20120;-69
2021/05/10 19:06:44;;;;;;;7.57;2.10;;;23.30;49.80;;;;;;5071416;28;20028;-68
2021/05/10 19:09:10;;;;;;;6.20;2.00;;;23.20;49.90;;;;;;5072093;28;20048;-69
2021/05/10 19:11:36;;;;;;;4.25;1.73;;;23.20;50.30;;;;;;5061855;28;20025;-68
2021/05/10 19:14:02;;;;;;;7.68;2.33;;;23.10;50.60;;;;;;5069189;28;20143;-68
2021/05/10 19:16:27;;;;;;;6.68;2.05;;;23.10;51.10;;;;;;5052737;28;20043;-68
2021/05/10 19:18:54;;;;;;;6.13;1.80;;;23.00;51.30;;;;;;5051977;28;20029;-69
2021/05/10 19:21:20;;;;;;;4.72;1.80;;;22.90;51.90;;;;;;5052445;28;20477;-69
2021/05/10 19:23:45;;;;;;;6.10;1.73;;;22.90;52.40;;;;;;5062097;28;20028;-69
2021/05/10 19:26:11;;;;;;;5.03;1.88;;;22.80;52.50;;;;;;5052663;28;20065;-69
2021/05/10 19:28:37;;;;;;;4.90;1.92;;;22.80;52.80;;;;;;5051549;28;20036;-69
2021/05/10 19:31:03;;;;;;;7.18;2.20;;;22.70;53.40;;;;;;5052680;28;20037;-69
2021/05/10 19:33:28;;;;;;;6.35;2.33;;;22.60;53.50;;;;;;5060106;28;20043;-69
2021/05/10 19:35:54;;;;;;;6.93;2.40;;;22.60;53.90;;;;;;5060828;28;20060;-69
2021/05/10 19:38:20;;;;;;;7.05;2.15;;;22.50;54.30;;;;;;5063334;28;20025;-69
2021/05/10 19:40:46;;;;;;;6.97;2.33;;;22.50;55.10;;;;;;5061300;28;20150;-70
2021/05/10 19:43:13;;;;;;;6.60;2.38;;;22.40;55.70;;;;;;5051549;28;20049;-69
2021/05/10 19:45:42;;;;;;;5.50;1.92;;;22.30;56.10;;;;;;5053921;28;20086;-69
2021/05/10 20:01:21;;;;;;;6.88;2.33;;;22.00;57.80;;;;;;5059252;28;20093;-68
2021/05/10 20:06:31;;;;;;;8.43;2.63;;;21.90;58.50;;;;;;5059343;28;20463;-68
2021/05/10 20:08:57;;;;;;;6.45;2.30;;;21.80;58.60;;;;;;5055871;28;20099;-68
2021/05/10 20:11:24;;;;;;;11.27;3.33;;;21.80;59.00;;;;;;5056948;28;20467;-68
2021/05/10 20:13:52;;;;;;;5.13;2.25;;;21.80;59.30;;;;;;5049522;28;20432;-68
2021/05/10 20:16:18;;;;;;;6.88;1.92;;;21.80;59.40;;;;;;5062993;28;20394;-68
2021/05/10 20:18:44;;;;;;;8.27;2.53;;;21.70;59.30;;;;;;5057921;28;20573;-69
2021/05/10 20:21:10;;;;;;;5.90;2.38;;;21.70;59.60;;;;;;5052149;28;20112;-69
2021/05/10 20:23:36;;;;;;;4.32;1.83;;;21.70;59.90;;;;;;5051284;28;20524;-68
2021/05/10 20:26:02;;;;;;;4.43;2.25;;;21.70;60.20;;;;;;5058132;28;20017;-68
2021/05/10 20:28:28;;;;;;;6.88;2.85;;;21.60;60.30;;;;;;5069603;28;20043;-68
2021/05/10 20:30:58;;;;;;;4.80;2.10;;;21.60;60.60;;;;;;5070864;28;20039;-68
2021/05/10 20:33:24;;;;;;;7.35;2.83;;;21.60;60.80;;;;;;5069764;28;20058;-69
2021/05/10 20:35:50;;;;;;;5.28;2.33;;;21.60;60.90;;;;;;5062876;28;20028;-68
2021/05/10 20:38:17;;;;;;;7.60;2.97;;;21.60;60.40;;;;;;5065727;28;20036;-69
2021/05/10 20:40:43;;;;;;;7.07;2.72;;;21.50;59.00;;;;;;5066392;28;20021;-70
2021/05/10 20:43:09;;;;;;;7.28;2.92;;;21.50;59.00;;;;;;5052416;28;20096;-68
2021/05/10 20:45:38;;;;;;;6.88;2.40;;;21.40;58.80;;;;;;5064166;28;20021;-69
2021/05/10 20:48:05;;;;;;;5.30;2.17;;;21.40;59.10;;;;;;5068264;28;20119;-69
2021/05/10 20:50:31;;;;;;;6.93;2.45;;;21.40;59.00;;;;;;5066245;28;20103;-69
2021/05/10 20:52:56;;;;;;;6.03;2.72;;;21.40;58.90;;;;;;5070222;28;20058;-69
2021/05/10 20:55:22;;;;;;;7.57;2.53;;;21.40;59.10;;;;;;5061827;28;20075;-69
2021/05/10 20:57:50;;;;;;;5.22;2.35;;;21.40;59.30;;;;;;5051263;28;20086;-69
2021/05/10 21:00:17;;;;;;;7.00;2.22;;;21.40;59.50;;;;;;5050419;28;20033;-69
2021/05/10 21:02:43;;;;;;;5.70;2.17;;;21.40;59.90;;;;;;5052645;28;20043;-70
2021/05/10 21:05:09;;;;;;;5.70;2.33;;;21.30;60.30;;;;;;5053585;28;20051;-68
2021/05/10 21:07:35;;;;;;;5.70;3.00;;;21.30;60.40;;;;;;5050730;28;20033;-69
2021/05/10 21:10:02;;;;;;;5.05;2.10;;;21.30;60.50;;;;;;5082931;28;20029;-70
2021/05/10 21:12:27;;;;;;;5.78;2.28;;;21.30;60.40;;;;;;5082302;28;20434;-69
2021/05/10 21:14:53;;;;;;;5.40;2.53;;;21.30;60.60;;;;;;5050123;28;20040;-69
2021/05/10 21:17:19;;;;;;;7.45;3.05;;;21.30;60.90;;;;;;5050064;28;20049;-69
2021/05/10 21:19:44;;;;;;;7.03;2.60;;;21.30;61.10;;;;;;5050776;28;20120;-69
2021/05/10 21:22:10;;;;;;;8.10;2.67;;;21.30;61.20;;;;;;5082397;28;20391;-68
2021/05/10 21:24:36;;;;;;;5.60;2.60;;;21.20;61.40;;;;;;5060622;28;20082;-69
2021/05/10 21:27:01;;;;;;;5.30;2.40;;;21.20;61.70;;;;;;5070843;28;20457;-69
2021/05/10 21:29:27;;;;;;;6.13;2.97;;;21.20;62.30;;;;;;5067168;28;20029;-69
2021/05/10 21:31:53;;;;;;;7.85;3.00;;;21.20;62.10;;;;;;5067797;28;20107;-69
2021/05/10 21:34:19;;;;;;;6.53;2.42;;;21.20;62.30;;;;;;5061855;28;20096;-67
2021/05/10 21:36:44;;;;;;;8.43;2.95;;;21.20;62.50;;;;;;5065365;28;20033;-68
2021/05/10 21:39:10;;;;;;;5.70;2.28;;;21.20;62.70;;;;;;5049199;28;20376;-68
2021/05/10 21:41:36;;;;;;;6.07;2.70;;;21.10;62.80;;;;;;5066478;28;20032;-68
2021/05/10 21:44:03;;;;;;;6.40;2.88;;;21.10;63.00;;;;;;5052808;28;20032;-69
2021/05/10 21:46:28;;;;;;;5.75;2.70;;;21.10;63.10;;;;;;5051400;28;20052;-68
2021/05/10 21:49:02;;;;;;;7.00;2.80;;;21.00;62.70;;;;;;5040722;28;20028;-69
2021/05/10 21:51:28;;;;;;;7.50;2.88;;;21.00;62.70;;;;;;5070203;28;20111;-69
2021/05/10 21:53:54;;;;;;;6.47;2.40;;;21.00;62.80;;;;;;5048522;28;20029;-70
2021/05/10 21:56:21;;;;;;;7.78;2.50;;;21.00;62.70;;;;;;5068976;28;20035;-68
2021/05/10 21:58:47;;;;;;;9.45;2.67;;;20.90;62.70;;;;;;5061423;28;20052;-69
2021/05/10 22:01:13;;;;;;;6.07;2.33;;;21.00;62.30;;;;;;5063212;28;20477;-69
2021/05/10 22:03:38;;;;;;;7.53;2.70;;;21.00;62.60;;;;;;5059553;28;20036;-68
2021/05/10 22:06:04;;;;;;;6.15;2.13;;;21.00;63.00;;;;;;5050502;28;20048;-70
2021/05/10 22:08:30;;;;;;;7.97;2.80;;;20.90;63.20;;;;;;5051594;28;20055;-67
2021/05/10 22:10:56;;;;;;;7.18;2.47;;;20.90;63.50;;;;;;5054919;28;20450;-67
2021/05/10 22:13:22;;;;;;;4.55;2.08;;;20.90;63.70;;;;;;5066712;28;20123;-67
2021/05/10 22:15:48;;;;;;;5.50;2.38;;;20.90;63.90;;;;;;5053477;28;20029;-68
2021/05/10 22:18:13;;;;;;;7.22;2.78;;;20.80;64.00;;;;;;5060714;28;20178;-68
2021/05/10 22:20:45;;;;;;;6.93;2.95;;;20.90;64.30;;;;;;5059473;28;20466;-67
2021/05/10 22:23:11;;;;;;;6.25;3.20;;;20.80;64.50;;;;;;5064788;28;20029;-67
2021/05/10 22:25:43;;;;;;;6.85;2.65;;;20.80;64.70;;;;;;5067051;28;20028;-68
2021/05/10 22:28:14;;;;;;;6.00;2.75;;;20.80;64.90;;;;;;5051925;28;20039;-67
2021/05/10 22:30:48;;;;;;;6.18;2.65;;;20.80;65.10;;;;;;5051451;28;20041;-67
2021/05/10 22:33:14;;;;;;;7.45;2.55;;;20.80;65.00;;;;;;5065831;28;20044;-67
2021/05/10 22:35:41;;;;;;;6.43;2.72;;;20.70;64.60;;;;;;5065898;28;20079;-67
2021/05/10 22:43:21;;;;;;;6.28;2.72;;;20.70;64.40;;;;;;5060321;28;20123;-67
2021/05/10 22:46:07;;;;;;;6.82;2.60;;;20.70;64.50;;;;;;5059381;28;20022;-67
2021/05/10 22:51:53;;;;;;;6.50;2.88;;;20.60;64.80;;;;;;5072781;28;20080;-67
2021/05/10 23:07:39;;;;;;;5.22;2.65;;;20.50;65.30;;;;;;5053907;28;20417;-68
2021/05/10 23:10:36;;;;;;;6.50;3.47;;;20.50;65.50;;;;;;5061606;28;20056;-68
2021/05/10 23:18:00;;;;;;;7.40;2.50;;;20.50;65.50;;;;;;5052858;28;20040;-67
2021/05/10 23:20:25;;;;;;;6.68;2.42;;;20.50;65.40;;;;;;5061289;28;20036;-68
2021/05/10 23:22:51;;;;;;;5.40;2.65;;;20.50;65.10;;;;;;5059031;28;20032;-68
2021/05/10 23:25:17;;;;;;;6.88;2.53;;;20.50;65.30;;;;;;5066338;28;20035;-67
2021/05/10 23:27:43;;;;;;;6.82;2.92;;;20.40;65.50;;;;;;5057329;28;20040;-68
2021/05/10 23:30:09;;;;;;;5.97;2.30;;;20.50;65.60;;;;;;5057096;28;20063;-68
2021/05/10 23:32:35;;;;;;;6.47;2.35;;;20.50;65.90;;;;;;5064616;28;20136;-68
2021/05/10 23:35:01;;;;;;;5.50;2.55;;;20.40;65.60;;;;;;5053559;28;20116;-68
2021/05/10 23:37:26;;;;;;;6.30;2.75;;;20.40;64.70;;;;;;5057871;28;20135;-68
2021/05/10 23:39:52;;;;;;;5.50;2.42;;;20.30;64.40;;;;;;5067595;28;20390;-69
2021/05/10 23:42:18;;;;;;;4.07;2.00;;;20.20;64.80;;;;;;5066322;28;20032;-68
2021/05/10 23:44:44;;;;;;;5.45;2.70;;;20.30;64.20;;;;;;5060556;28;20075;-68
2021/05/10 23:47:10;;;;;;;5.18;2.30;;;20.20;63.60;;;;;;5065475;28;20467;-68
2021/05/10 23:49:35;;;;;;;5.47;2.30;;;20.10;63.20;;;;;;5059901;28;20037;-68
2021/05/10 23:52:01;;;;;;;7.13;2.47;;;20.20;63.40;;;;;;5078471;28;20059;-67
2021/05/10 23:54:27;;;;;;;7.07;2.80;;;20.20;63.40;;;;;;5060227;28;20406;-68
2021/05/10 23:56:52;;;;;;;5.95;2.38;;;20.10;63.50;;;;;;5055211;28;20134;-68
2021/05/10 23:59:18;;;;;;;6.13;2.42;;;20.20;63.60;;;;;;5051178;28;20037;-68
